createdAt,value
2019-04-21T00:01:24.343Z,12.82
2019-04-21T00:04:09.772Z,8.70
2019-04-21T00:06:48.147Z,8.10
2019-04-21T00:12:02.500Z,11.30
2019-04-21T00:14:27.626Z,13.32
2019-04-21T00:16:57.516Z,7.03
2019-04-21T00:19:33.969Z,9.05
2019-04-21T00:22:19.104Z,6.45
2019-04-21T00:24:54.352Z,7.58
2019-04-21T00:27:31.013Z,5.28
2019-04-21T00:30:12.125Z,7.10
2019-04-21T00:32:38.138Z,4.97
2019-04-21T00:35:04.751Z,5.12
2019-04-21T00:37:54.269Z,10.45
2019-04-21T00:40:27.685Z,20.52
2019-04-21T00:43:18.137Z,19.75
2019-04-21T00:45:44.854Z,15.60
2019-04-21T00:48:32.945Z,9.13
2019-04-21T00:51:17.699Z,11.12
2019-04-21T00:53:51.968Z,10.70
2019-04-21T00:56:21.927Z,10.32
2019-04-21T00:58:53.424Z,4.87
2019-04-21T01:01:50.791Z,10.13
2019-04-21T01:04:23.492Z,11.00
2019-04-21T01:06:54.448Z,4.75
2019-04-21T01:09:30.391Z,8.25
2019-04-21T01:12:07.810Z,6.42
2019-04-21T01:14:51.959Z,7.10
2019-04-21T01:17:20.262Z,5.67
2019-04-21T01:19:43.904Z,5.25
2019-04-21T01:22:04.890Z,3.12
2019-04-21T01:24:42.947Z,7.45
2019-04-21T01:27:21.424Z,5.45
2019-04-21T01:30:05.665Z,4.78
2019-04-21T01:32:42.711Z,3.98
2019-04-21T01:35:14.733Z,4.55
2019-04-21T01:37:49.614Z,5.53
2019-04-21T01:40:29.794Z,5.62
2019-04-21T01:43:31.529Z,7.45
2019-04-21T01:45:59.664Z,7.87
2019-04-21T01:48:34.207Z,3.20
2019-04-21T01:51:08.796Z,5.42
2019-04-21T01:54:06.043Z,6.30
2019-04-21T01:56:53.878Z,5.78
2019-04-21T01:59:20.440Z,5.25
2019-04-21T02:02:08.120Z,9.80
2019-04-21T02:04:42.907Z,4.83
2019-04-21T02:07:13.008Z,4.75
2019-04-21T02:09:44.294Z,7.67
2019-04-21T02:12:20.532Z,5.92
2019-04-21T02:15:03.307Z,3.92
2019-04-21T02:17:43.441Z,5.60
2019-04-21T02:19:55.225Z,6.72
2019-04-21T02:22:46.187Z,5.15
2019-04-21T02:25:26.872Z,6.47
2019-04-21T02:27:42.969Z,5.67
2019-04-21T02:30:29.415Z,5.72
2019-04-21T02:33:19.576Z,3.98
2019-04-21T02:35:58.062Z,8.70
2019-04-21T02:38:29.773Z,6.92
2019-04-21T02:40:46.486Z,7.85
2019-04-21T02:46:02.071Z,8.15
2019-04-21T02:48:35.017Z,4.17
2019-04-21T02:50:58.034Z,5.17
2019-04-21T02:59:17.028Z,5.08
2019-04-21T03:02:27.161Z,4.87
2019-04-21T03:05:11.667Z,4.17
2019-04-21T03:07:40.759Z,3.77
2019-04-21T03:10:20.642Z,6.17
2019-04-21T03:12:44.141Z,6.58
2019-04-21T03:15:21.345Z,6.17
2019-04-21T03:18:00.220Z,8.13
2019-04-21T03:20:39.968Z,6.42
2019-04-21T03:23:07.755Z,6.97
2019-04-21T03:28:15.700Z,5.17
2019-04-21T03:36:41.415Z,9.20
2019-04-21T03:38:47.334Z,6.45
2019-04-21T03:44:02.960Z,6.53
2019-04-21T03:46:37.335Z,8.23
2019-04-21T03:49:10.609Z,5.72
2019-04-21T03:51:48.753Z,9.55
2019-04-21T03:54:41.493Z,4.85
2019-04-21T03:57:21.657Z,8.40
2019-04-21T04:00:00.786Z,7.12
2019-04-21T04:02:44.834Z,4.37
2019-04-21T04:07:59.101Z,6.65
2019-04-21T04:13:14.451Z,5.40
2019-04-21T04:15:49.021Z,6.80
2019-04-21T04:18:17.626Z,6.03
2019-04-21T04:20:53.434Z,7.05
2019-04-21T04:23:37.328Z,7.62
2019-04-21T04:25:57.746Z,6.87
2019-04-21T04:31:18.053Z,6.40
2019-04-21T04:33:51.919Z,7.15
2019-04-21T04:49:47.981Z,7.28
2019-04-21T04:52:31.331Z,7.70
2019-04-21T04:57:47.100Z,6.12
2019-04-21T05:00:14.334Z,9.13
2019-04-21T05:02:37.585Z,9.98
2019-04-21T05:07:42.858Z,11.63
2019-04-21T05:12:45.049Z,10.65
2019-04-21T05:17:50.842Z,6.50
2019-04-21T05:20:44.564Z,8.08
2019-04-21T05:22:53.209Z,7.47
2019-04-21T05:25:23.084Z,10.38
2019-04-21T05:27:56.935Z,7.30
2019-04-21T05:30:50.919Z,6.80
2019-04-21T05:33:45.986Z,11.70
2019-04-21T05:36:30.909Z,8.15
2019-04-21T05:39:18.797Z,9.15
2019-04-21T05:41:43.187Z,6.65
2019-04-21T05:44:37.966Z,9.38
2019-04-21T05:47:15.922Z,7.53
2019-04-21T05:50:02.938Z,9.83
2019-04-21T05:52:47.655Z,14.95
2019-04-21T05:58:06.029Z,14.07
2019-04-21T06:01:03.501Z,18.67
2019-04-21T06:03:16.494Z,13.75
2019-04-21T06:06:05.757Z,46.50
2019-04-21T06:08:25.516Z,49.00
2019-04-21T06:11:05.408Z,62.73
2019-04-21T06:13:42.825Z,31.45
2019-04-21T06:16:07.315Z,53.33
2019-04-21T06:18:55.350Z,44.25
2019-04-21T06:21:19.950Z,38.23
2019-04-21T06:23:45.641Z,24.63
2019-04-21T06:26:50.465Z,21.73
2019-04-21T06:28:56.806Z,15.48
2019-04-21T06:34:09.656Z,13.00
2019-04-21T06:37:34.850Z,15.60
2019-04-21T06:40:06.396Z,14.47
2019-04-21T06:42:18.580Z,10.20
2019-04-21T06:44:57.627Z,10.23
2019-04-21T06:47:47.432Z,9.45
2019-04-21T06:50:07.611Z,7.45
2019-04-21T06:52:57.208Z,11.10
2019-04-21T06:55:13.865Z,15.38
2019-04-21T06:57:53.058Z,12.58
2019-04-21T07:00:18.453Z,12.30
2019-04-21T07:03:08.451Z,12.40
2019-04-21T07:05:35.824Z,12.95
2019-04-21T07:08:23.275Z,16.42
2019-04-21T07:10:37.185Z,20.88
2019-04-21T07:13:11.887Z,15.35
2019-04-21T07:15:56.449Z,17.40
2019-04-21T07:18:27.592Z,13.35
2019-04-21T07:20:56.502Z,11.40
2019-04-21T07:23:32.274Z,8.40
2019-04-21T07:26:05.272Z,13.18
2019-04-21T07:28:46.039Z,10.08
2019-04-21T07:31:17.612Z,9.83
2019-04-21T07:33:53.415Z,10.10
2019-04-21T07:36:29.162Z,9.05
2019-04-21T07:38:51.445Z,9.63
2019-04-21T07:41:20.020Z,9.43
2019-04-21T07:43:59.181Z,15.40
2019-04-21T07:46:28.933Z,10.05
2019-04-21T07:49:21.023Z,9.78
2019-04-21T07:55:05.619Z,9.70
2019-04-21T07:57:27.693Z,10.95
2019-04-21T08:00:15.036Z,17.40
2019-04-21T08:02:40.367Z,9.98
2019-04-21T08:05:20.586Z,10.23
2019-04-21T08:07:54.203Z,8.85
2019-04-21T08:10:21.202Z,8.50
2019-04-21T08:12:55.600Z,7.53
2019-04-21T08:15:40.058Z,9.10
2019-04-21T08:18:07.817Z,11.30
2019-04-21T08:21:15.253Z,11.03
2019-04-21T08:23:41.495Z,6.10
2019-04-21T08:26:17.415Z,9.35
2019-04-21T08:29:07.763Z,7.30
2019-04-21T08:31:34.434Z,7.67
2019-04-21T08:34:07.692Z,9.85
2019-04-21T08:36:35.612Z,8.35
2019-04-21T08:39:08.811Z,5.17
2019-04-21T08:41:43.971Z,5.30
2019-04-21T08:44:24.287Z,6.15
2019-04-21T08:49:26.242Z,5.83
2019-04-21T08:52:09.924Z,6.40
2019-04-21T08:54:43.496Z,7.58
2019-04-21T08:57:46.402Z,10.32
2019-04-21T09:00:56.592Z,6.60
2019-04-21T09:03:16.225Z,9.30
2019-04-21T09:05:45.124Z,9.78
2019-04-21T09:08:19.529Z,6.20
2019-04-21T09:10:55.871Z,5.83
2019-04-21T09:13:25.132Z,5.65
2019-04-21T09:15:58.057Z,6.35
2019-04-21T09:18:28.423Z,5.80
2019-04-21T09:21:13.574Z,7.42
2019-04-21T09:23:44.920Z,7.05
2019-04-21T09:26:28.291Z,6.47
2019-04-21T09:28:49.433Z,5.85
2019-04-21T09:31:11.918Z,6.55
2019-04-21T09:33:48.807Z,6.33
2019-04-21T09:36:21.622Z,16.67
2019-04-21T09:39:01.199Z,8.53
2019-04-21T09:41:29.756Z,5.83
2019-04-21T09:44:08.769Z,6.08
2019-04-21T09:46:49.753Z,6.37
2019-04-21T09:49:20.198Z,5.87
2019-04-21T09:51:48.320Z,6.70
2019-04-21T09:54:26.556Z,5.30
2019-04-21T09:57:01.618Z,5.65
2019-04-21T09:59:35.557Z,6.00
2019-04-21T10:02:13.338Z,4.90
2019-04-21T10:04:38.261Z,8.48
2019-04-21T10:07:23.370Z,6.17
2019-04-21T10:09:47.908Z,5.90
2019-04-21T10:12:33.375Z,6.00
2019-04-21T10:15:08.579Z,9.80
2019-04-21T10:17:51.959Z,4.85
2019-04-21T10:20:24.588Z,5.60
2019-04-21T10:22:59.388Z,5.95
2019-04-21T10:25:34.658Z,5.60
2019-04-21T10:28:07.882Z,3.85
2019-04-21T10:30:40.755Z,4.95
2019-04-21T10:33:14.337Z,6.78
2019-04-21T10:35:46.832Z,3.60
2019-04-21T10:38:28.208Z,10.80
2019-04-21T10:40:53.677Z,5.53
2019-04-21T10:43:27.455Z,6.47
2019-04-21T10:46:01.250Z,4.42
2019-04-21T10:48:35.068Z,5.62
2019-04-21T10:51:07.914Z,7.35
2019-04-21T10:53:42.556Z,5.60
2019-04-21T10:56:25.104Z,6.25
2019-04-21T10:58:54.168Z,5.10
2019-04-21T11:01:29.531Z,5.65
2019-04-21T11:04:24.879Z,4.10
2019-04-21T11:06:59.433Z,5.30
2019-04-21T11:09:56.242Z,5.58
2019-04-21T11:12:28.484Z,4.33
2019-04-21T11:15:01.155Z,4.50
2019-04-21T11:17:34.433Z,3.72
2019-04-21T11:20:08.805Z,4.35
2019-04-21T11:22:41.673Z,3.20
2019-04-21T11:25:14.178Z,3.85
2019-04-21T11:27:47.030Z,5.33
2019-04-21T11:30:20.034Z,4.20
2019-04-21T11:32:53.145Z,3.45
2019-04-21T11:35:27.626Z,5.12
2019-04-21T11:38:08.381Z,5.05
2019-04-21T11:40:38.081Z,6.10
2019-04-21T11:43:11.469Z,4.20
2019-04-21T11:45:44.418Z,3.40
2019-04-21T11:48:28.201Z,4.37
2019-04-21T11:51:01.371Z,5.55
2019-04-21T11:53:34.780Z,3.65
2019-04-21T11:56:07.382Z,3.22
2019-04-21T11:58:39.658Z,5.33
2019-04-21T12:01:11.811Z,3.87
2019-04-21T12:03:45.350Z,3.55
2019-04-21T12:06:17.668Z,3.15
2019-04-21T12:08:52.834Z,3.83
2019-04-21T12:11:25.218Z,3.58
2019-04-21T12:14:00.311Z,6.40
2019-04-21T12:16:33.153Z,6.83
2019-04-21T12:19:05.470Z,4.92
2019-04-21T12:21:50.701Z,6.85
2019-04-21T12:24:13.238Z,4.62
2019-04-21T12:26:47.765Z,6.90
2019-04-21T12:29:20.848Z,3.77
2019-04-21T12:32:16.135Z,2.87
2019-04-21T12:34:50.509Z,4.42
2019-04-21T12:37:24.715Z,5.58
2019-04-21T12:39:58.875Z,4.78
2019-04-21T12:42:32.881Z,3.30
2019-04-21T12:45:05.877Z,5.75
2019-04-21T12:47:38.040Z,4.87
2019-04-21T12:50:13.038Z,3.50
2019-04-21T12:52:45.375Z,5.15
2019-04-21T12:55:17.803Z,7.00
2019-04-21T12:58:01.301Z,3.75
2019-04-21T13:00:33.626Z,3.70
2019-04-21T13:03:06.015Z,2.50
2019-04-21T13:05:41.477Z,4.45
2019-04-21T13:08:15.520Z,3.87
2019-04-21T13:10:48.527Z,3.75
2019-04-21T13:13:21.944Z,7.42
2019-04-21T13:15:55.556Z,3.30
2019-04-21T13:18:29.145Z,4.35
2019-04-21T13:21:05.198Z,4.37
2019-04-21T13:23:37.015Z,4.40
2019-04-21T13:26:10.019Z,4.47
2019-04-21T13:28:44.556Z,3.65
2019-04-21T13:31:18.085Z,4.10
2019-04-21T13:33:50.513Z,3.37
2019-04-21T13:36:23.427Z,3.47
2019-04-21T13:39:42.698Z,3.95
2019-04-21T13:41:56.736Z,7.42
2019-04-21T13:44:21.330Z,4.92
2019-04-21T13:46:54.564Z,7.08
2019-04-21T13:49:27.382Z,6.97
2019-04-21T13:52:02.549Z,4.25
2019-04-21T13:54:35.677Z,5.80
2019-04-21T13:57:08.338Z,3.58
2019-04-21T13:59:42.211Z,4.40
2019-04-21T14:02:16.370Z,4.08
2019-04-21T14:04:51.661Z,3.30
2019-04-21T14:07:26.048Z,5.95
2019-04-21T14:10:06.306Z,5.55
2019-04-21T14:12:42.659Z,4.72
2019-04-21T14:15:20.130Z,4.17
2019-04-21T14:17:53.050Z,4.15
2019-04-21T14:20:27.046Z,5.58
2019-04-21T14:23:13.742Z,3.85
2019-04-21T14:25:35.547Z,3.22
2019-04-21T14:28:08.131Z,5.47
2019-04-21T14:30:40.760Z,4.12
2019-04-21T14:33:16.344Z,4.42
2019-04-21T14:35:48.522Z,3.85
2019-04-21T14:38:20.780Z,6.53
2019-04-21T14:40:54.323Z,4.53
2019-04-21T14:43:27.722Z,4.37
2019-04-21T14:46:09.069Z,3.70
2019-04-21T14:49:03.854Z,3.35
2019-04-21T14:51:47.494Z,4.62
2019-04-21T14:54:40.456Z,6.30
2019-04-21T14:57:13.566Z,4.72
2019-04-21T14:59:49.040Z,5.75
2019-04-21T15:02:22.306Z,5.20
2019-04-21T15:04:55.658Z,4.87
2019-04-21T15:07:30.628Z,4.08
2019-04-21T15:10:11.553Z,3.22
2019-04-21T15:12:38.173Z,8.55
2019-04-21T15:15:11.949Z,6.00
2019-04-21T15:17:46.358Z,4.90
2019-04-21T15:20:20.231Z,3.65
2019-04-21T15:22:56.548Z,5.97
2019-04-21T15:25:30.090Z,5.08
2019-04-21T15:28:04.939Z,5.35
2019-04-21T15:30:38.605Z,7.30
2019-04-21T15:33:12.710Z,8.63
2019-04-21T15:35:47.012Z,4.35
2019-04-21T15:38:20.142Z,8.98
2019-04-21T15:40:57.133Z,5.62
2019-04-21T15:43:26.598Z,6.53
2019-04-21T15:45:58.850Z,3.87
2019-04-21T15:48:30.938Z,8.98
2019-04-21T15:51:08.449Z,6.05
2019-04-21T15:53:41.814Z,8.25
2019-04-21T15:56:36.207Z,4.70
2019-04-21T15:59:32.592Z,6.00
2019-04-21T16:02:24.598Z,5.45
2019-04-21T16:04:56.951Z,4.28
2019-04-21T16:07:29.877Z,5.03
2019-04-21T16:10:07.002Z,3.87
2019-04-21T16:12:41.016Z,6.12
2019-04-21T16:15:30.377Z,6.30
2019-04-21T16:18:08.352Z,5.03
2019-04-21T16:20:41.856Z,6.03
2019-04-21T16:23:14.953Z,10.70
2019-04-21T16:25:50.762Z,5.28
2019-04-21T16:28:23.824Z,6.12
2019-04-21T16:30:56.205Z,7.15
2019-04-21T16:33:34.561Z,5.92
2019-04-21T16:36:09.602Z,5.47
2019-04-21T16:38:43.864Z,5.17
2019-04-21T16:41:18.524Z,5.47
2019-04-21T16:43:51.361Z,4.28
2019-04-21T16:46:23.498Z,5.22
2019-04-21T16:48:55.917Z,7.00
2019-04-21T16:51:28.512Z,6.00
2019-04-21T16:54:06.031Z,4.45
2019-04-21T16:56:43.970Z,5.83
2019-04-21T16:59:24.460Z,5.60
2019-04-21T17:01:56.680Z,6.50
2019-04-21T17:04:28.836Z,5.25
2019-04-21T17:07:01.000Z,7.58
2019-04-21T17:09:34.692Z,5.40
2019-04-21T17:12:10.389Z,8.15
2019-04-21T17:14:55.583Z,5.75
2019-04-21T17:17:38.509Z,5.78
2019-04-21T17:19:52.596Z,4.75
2019-04-21T17:22:25.668Z,5.40
2019-04-21T17:24:58.270Z,7.05
2019-04-21T17:27:31.225Z,4.72
2019-04-21T17:30:04.343Z,4.45
2019-04-21T17:32:43.314Z,4.95
2019-04-21T17:35:12.405Z,5.53
2019-04-21T17:37:45.777Z,5.90
2019-04-21T17:40:26.163Z,6.45
2019-04-21T17:43:05.147Z,8.98
2019-04-21T17:45:32.999Z,4.97
2019-04-21T17:48:10.474Z,6.67
2019-04-21T17:50:59.164Z,7.05
2019-04-21T17:53:50.052Z,7.05
2019-04-21T17:56:46.372Z,7.25
2019-04-21T17:59:17.682Z,4.85
2019-04-21T18:01:47.224Z,9.08
2019-04-21T18:04:24.317Z,7.05
2019-04-21T18:07:08.697Z,10.10
2019-04-21T18:09:56.492Z,13.28
2019-04-21T18:12:26.243Z,9.35
2019-04-21T18:14:53.645Z,11.53
2019-04-21T18:17:18.484Z,11.65
2019-04-21T18:19:53.136Z,9.28
2019-04-21T18:22:41.757Z,7.83
2019-04-21T18:25:29.581Z,6.90
2019-04-21T18:27:50.559Z,8.15
2019-04-21T18:30:48.751Z,10.70
2019-04-21T18:33:27.370Z,6.85
2019-04-21T18:36:25.383Z,7.67
2019-04-21T18:39:23.379Z,9.35
2019-04-21T18:42:04.870Z,9.48
2019-04-21T18:45:34.382Z,11.80
2019-04-21T18:47:59.205Z,12.03
2019-04-21T18:50:45.975Z,11.03
2019-04-21T18:53:35.202Z,9.05
2019-04-21T18:56:00.375Z,9.40
2019-04-21T18:58:28.391Z,11.68
2019-04-21T19:01:07.580Z,9.25
2019-04-21T19:03:41.074Z,9.70
2019-04-21T19:06:14.595Z,11.53
2019-04-21T19:09:05.706Z,10.35
2019-04-21T19:11:35.922Z,9.48
2019-04-21T19:14:32.259Z,12.60
2019-04-21T19:17:11.069Z,9.55
2019-04-21T19:22:04.373Z,10.15
2019-04-21T19:24:45.706Z,9.10
2019-04-21T19:27:18.879Z,10.90
2019-04-21T19:29:51.907Z,8.20
2019-04-21T19:34:41.349Z,8.38
2019-04-21T19:37:18.362Z,10.25
2019-04-21T19:40:00.597Z,9.25
2019-04-21T19:42:32.293Z,8.90
2019-04-21T19:45:13.740Z,12.18
2019-04-21T19:47:49.975Z,9.73
2019-04-21T19:50:24.913Z,8.55
2019-04-21T19:52:49.629Z,12.65
2019-04-21T19:55:14.120Z,10.78
2019-04-21T19:57:47.067Z,10.85
2019-04-21T20:00:19.870Z,12.05
2019-04-21T20:03:00.804Z,15.13
2019-04-21T20:05:54.816Z,12.40
2019-04-21T20:08:43.326Z,18.87
2019-04-21T20:11:30.789Z,12.18
2019-04-21T20:16:54.728Z,14.00
2019-04-21T20:19:24.806Z,9.88
2019-04-21T20:22:09.225Z,12.05
2019-04-21T20:24:56.417Z,8.25
2019-04-21T20:28:01.299Z,9.00
2019-04-21T20:30:47.186Z,11.78
2019-04-21T20:33:49.077Z,6.17
2019-04-21T20:36:23.888Z,8.60
2019-04-21T20:39:05.305Z,5.10
2019-04-21T20:41:40.855Z,4.95
2019-04-21T20:44:20.863Z,3.98
2019-04-21T20:46:51.602Z,5.10
2019-04-21T20:49:19.249Z,6.90
2019-04-21T20:52:14.318Z,4.58
2019-04-21T20:54:36.878Z,6.05
2019-04-21T20:57:11.118Z,6.40
2019-04-21T20:59:40.897Z,6.70
2019-04-21T21:02:20.028Z,8.98
2019-04-21T21:04:44.672Z,9.05
2019-04-21T21:07:40.023Z,6.05
2019-04-21T21:10:08.754Z,13.45
2019-04-21T21:12:43.186Z,5.50
2019-04-21T21:15:34.849Z,5.37
2019-04-21T21:18:35.591Z,7.85
2019-04-21T21:21:06.665Z,8.18
2019-04-21T21:23:43.953Z,9.80
2019-04-21T21:26:21.872Z,7.05
2019-04-21T21:29:06.808Z,3.77
2019-04-21T21:31:46.624Z,3.83
2019-04-21T21:34:27.878Z,3.40
2019-04-21T21:37:08.642Z,7.42
2019-04-21T21:39:36.316Z,8.63
2019-04-21T21:41:53.085Z,7.08
2019-04-21T21:44:26.222Z,6.20
2019-04-21T21:47:06.445Z,6.80
2019-04-21T21:49:46.762Z,8.15
2019-04-21T21:52:12.830Z,9.38
2019-04-21T21:54:40.106Z,6.72
2019-04-21T21:57:12.762Z,11.03
2019-04-21T21:59:45.412Z,8.18
2019-04-21T22:02:28.310Z,6.20
2019-04-21T22:05:01.133Z,5.92
2019-04-21T22:07:31.763Z,8.33
2019-04-21T22:10:04.403Z,8.33
2019-04-21T22:12:45.721Z,6.95
2019-04-21T22:15:18.650Z,7.20
2019-04-21T22:18:09.423Z,9.10
2019-04-21T22:20:37.362Z,9.45
2019-04-21T22:23:01.158Z,8.65
2019-04-21T22:25:41.982Z,7.83
2019-04-21T22:28:25.392Z,11.95
2019-04-21T22:30:58.752Z,8.48
2019-04-21T22:33:41.882Z,9.68
2019-04-21T22:36:23.822Z,11.18
2019-04-21T22:38:59.640Z,12.03
2019-04-21T22:41:28.215Z,9.60
2019-04-21T22:43:53.264Z,13.38
2019-04-21T22:46:26.240Z,13.00
2019-04-21T22:49:04.922Z,14.73
2019-04-21T22:51:38.384Z,15.98
2019-04-21T22:54:07.974Z,24.40
2019-04-21T22:56:50.392Z,9.53
2019-04-21T22:59:19.640Z,10.40
2019-04-21T23:01:50.391Z,14.23
2019-04-21T23:04:25.476Z,14.20
2019-04-21T23:07:02.162Z,17.25
2019-04-21T23:09:33.049Z,16.80
2019-04-21T23:12:05.245Z,20.35
2019-04-21T23:14:46.784Z,17.12
2019-04-21T23:20:17.295Z,12.10
2019-04-21T23:22:58.349Z,12.55
2019-04-21T23:25:22.334Z,12.60
2019-04-21T23:27:59.115Z,11.90
2019-04-21T23:30:39.215Z,11.38
2019-04-21T23:32:53.610Z,11.83
2019-04-21T23:35:31.979Z,8.50
2019-04-21T23:37:58.604Z,9.65
2019-04-21T23:40:31.448Z,8.83
2019-04-21T23:43:09.501Z,8.68
2019-04-21T23:45:40.900Z,10.13
2019-04-21T23:48:27.167Z,12.10
2019-04-21T23:50:53.967Z,10.50
2019-04-21T23:53:19.608Z,8.20
2019-04-21T23:55:54.923Z,9.48
2019-04-21T23:58:30.881Z,11.10
